createdAt,value
2022-12-29T00:02:01.266Z,99648.81
2022-12-29T00:05:08.153Z,99657.19
2022-12-29T00:08:14.448Z,99652.09
2022-12-29T00:11:18.921Z,99633.69
2022-12-29T00:14:40.070Z,99633.34
2022-12-29T00:17:45.196Z,99633.19
2022-12-29T00:21:09.161Z,99621.22
2022-12-29T00:24:33.175Z,99624.81
2022-12-29T00:27:53.293Z,99623.59
2022-12-29T00:31:18.210Z,99613.31
2022-12-29T00:34:38.426Z,99613.13
2022-12-29T00:38:02.039Z,99621.53
2022-12-29T00:41:23.818Z,99615.94
2022-12-29T00:44:26.537Z,99610.97
2022-12-29T00:47:29.228Z,99610.72
2022-12-29T00:50:31.875Z,99605.81
2022-12-29T00:53:34.549Z,99610.81
2022-12-29T00:56:38.611Z,99605.13
2022-12-29T00:59:44.667Z,99609.41
2022-12-29T01:02:47.779Z,99596.56
2022-12-29T01:05:50.564Z,99607.22
2022-12-29T01:09:09.900Z,99613.50
2022-12-29T01:12:14.252Z,99602.75
2022-12-29T01:15:19.745Z,99605.38
2022-12-29T01:18:23.922Z,99622.34
2022-12-29T01:21:26.680Z,99619.19
2022-12-29T01:24:30.048Z,99631.16
2022-12-29T01:27:34.264Z,99646.72
2022-12-29T01:30:39.726Z,99636.06
2022-12-29T01:33:43.337Z,99648.81
2022-12-29T01:36:51.261Z,99640.88
2022-12-29T01:39:55.877Z,99642.00
2022-12-29T01:42:59.922Z,99634.94
2022-12-29T01:46:14.033Z,99622.59
2022-12-29T01:49:22.852Z,99628.09
2022-12-29T01:52:29.097Z,99632.75
2022-12-29T01:55:35.294Z,99622.06
2022-12-29T01:58:43.817Z,99615.94
2022-12-29T02:01:46.810Z,99619.66
2022-12-29T02:04:49.923Z,99589.56
2022-12-29T02:07:54.147Z,99607.94
2022-12-29T02:10:58.572Z,99608.09
2022-12-29T02:14:03.846Z,99605.38
2022-12-29T02:17:16.047Z,99593.59
2022-12-29T02:20:52.961Z,99601.72
2022-12-29T02:24:23.583Z,99586.06
2022-12-29T02:27:42.241Z,99580.28
2022-12-29T02:30:53.505Z,99589.72
2022-12-29T02:34:09.164Z,99595.59
2022-12-29T02:37:33.549Z,99604.59
2022-12-29T02:40:43.619Z,99605.47
2022-12-29T02:43:52.847Z,99610.00
2022-12-29T02:47:03.765Z,99618.06
2022-12-29T02:50:14.371Z,99610.00
2022-12-29T02:53:39.584Z,99599.69
2022-12-29T02:56:41.589Z,99622.34
2022-12-29T02:59:45.626Z,99600.41
2022-12-29T03:03:10.099Z,99589.66
2022-12-29T03:06:27.805Z,99594.28
2022-12-29T03:09:43.792Z,99599.81
2022-12-29T03:13:09.627Z,99606.00
2022-12-29T03:16:22.053Z,99601.28
2022-12-29T03:19:31.426Z,99598.41
2022-12-29T03:22:41.526Z,99609.84
2022-12-29T03:25:50.978Z,99587.38
2022-12-29T03:28:55.522Z,99591.75
2022-12-29T03:32:02.049Z,99588.19
2022-12-29T03:35:09.420Z,99580.03
2022-12-29T03:38:16.861Z,99585.53
2022-12-29T03:41:25.105Z,99573.84
2022-12-29T03:44:34.562Z,99583.47
2022-12-29T03:47:40.288Z,99562.75
2022-12-29T03:50:51.782Z,99578.81
2022-12-29T03:53:55.254Z,99594.97
2022-12-29T03:56:58.161Z,99566.84
2022-12-29T04:00:00.881Z,99553.47
2022-12-29T04:03:06.484Z,99562.38
2022-12-29T04:06:10.580Z,99536.25
2022-12-29T04:09:13.338Z,99548.56
2022-12-29T04:12:25.144Z,99539.75
2022-12-29T04:15:28.906Z,99542.25
2022-12-29T04:18:31.736Z,99527.75
2022-12-29T04:21:35.800Z,99500.50
2022-12-29T04:24:44.720Z,99495.34
2022-12-29T04:27:53.312Z,99497.38
2022-12-29T04:30:56.441Z,99507.41
2022-12-29T04:34:01.106Z,99512.84
2022-12-29T04:37:10.694Z,99520.00
2022-12-29T04:40:14.008Z,99511.41
2022-12-29T04:43:31.008Z,99516.47
2022-12-29T04:46:33.781Z,99516.22
2022-12-29T04:49:36.696Z,99525.22
2022-12-29T04:52:40.769Z,99484.63
2022-12-29T04:55:46.934Z,99496.06
2022-12-29T04:58:49.634Z,99506.91
2022-12-29T05:01:52.345Z,99497.81
2022-12-29T05:04:56.432Z,99500.34
2022-12-29T05:08:00.439Z,99498.59
2022-12-29T05:11:03.872Z,99514.72
2022-12-29T05:14:08.716Z,99499.44
2022-12-29T05:17:11.428Z,99507.34
2022-12-29T05:20:14.168Z,99493.06
2022-12-29T05:23:18.637Z,99500.81
2022-12-29T05:26:21.439Z,99508.44
2022-12-29T05:29:24.132Z,99512.06
2022-12-29T05:32:33.035Z,99516.44
2022-12-29T05:35:35.926Z,99498.13
2022-12-29T05:38:39.946Z,99506.41
2022-12-29T05:41:50.102Z,99513.75
2022-12-29T05:44:54.774Z,99498.34
2022-12-29T05:48:04.992Z,99503.69
2022-12-29T05:51:07.741Z,99511.91
2022-12-29T05:54:11.855Z,99501.94
2022-12-29T05:57:14.505Z,99513.75
2022-12-29T06:00:18.229Z,99506.59
2022-12-29T06:03:23.333Z,99512.97
2022-12-29T06:06:26.197Z,99504.03
2022-12-29T06:09:30.408Z,99501.50
2022-12-29T06:12:33.131Z,99486.03
2022-12-29T06:15:35.926Z,99478.69
2022-12-29T06:18:38.652Z,99504.56
2022-12-29T06:21:41.391Z,99493.91
2022-12-29T06:24:45.374Z,99497.31
2022-12-29T06:27:48.106Z,99487.28
2022-12-29T06:30:50.789Z,99499.75
2022-12-29T06:33:53.742Z,99494.94
2022-12-29T06:37:01.072Z,99492.22
2022-12-29T06:40:12.737Z,99490.41
2022-12-29T06:43:15.634Z,99495.47
2022-12-29T06:46:18.351Z,99505.34
2022-12-29T06:49:23.310Z,99505.53
2022-12-29T06:52:26.103Z,99521.69
2022-12-29T06:55:30.166Z,99509.44
2022-12-29T06:58:33.203Z,99503.31
2022-12-29T07:01:38.178Z,99512.44
2022-12-29T07:04:41.184Z,99516.97
2022-12-29T07:07:43.974Z,99505.94
2022-12-29T07:10:49.494Z,99522.41
2022-12-29T07:13:52.934Z,99510.47
2022-12-29T07:16:58.088Z,99519.56
2022-12-29T07:20:00.859Z,99506.13
2022-12-29T07:23:04.275Z,99518.91
2022-12-29T07:26:10.327Z,99509.97
2022-12-29T07:29:13.079Z,99510.84
2022-12-29T07:32:15.845Z,99509.50
2022-12-29T07:35:18.665Z,99512.06
2022-12-29T07:38:21.335Z,99507.50
2022-12-29T07:41:25.537Z,99507.28
2022-12-29T07:44:28.543Z,99514.78
2022-12-29T07:47:31.292Z,99506.72
2022-12-29T07:50:34.086Z,99502.19
2022-12-29T07:53:37.145Z,99498.50
2022-12-29T07:56:41.508Z,99496.38
2022-12-29T07:59:44.340Z,99497.78
2022-12-29T08:02:47.150Z,99498.53
2022-12-29T08:05:50.601Z,99501.06
2022-12-29T08:08:53.327Z,99509.19
2022-12-29T08:11:57.621Z,99512.69
2022-12-29T08:15:01.655Z,99506.00
2022-12-29T08:18:07.454Z,99514.13
2022-12-29T08:21:10.206Z,99505.53
2022-12-29T08:24:13.274Z,99515.97
2022-12-29T08:27:20.710Z,99520.16
2022-12-29T08:30:24.384Z,99504.16
2022-12-29T08:33:27.409Z,99519.84
2022-12-29T08:36:30.090Z,99513.06
2022-12-29T08:39:32.833Z,99483.19
2022-12-29T08:42:37.388Z,99469.47
2022-12-29T08:45:40.072Z,99506.75
2022-12-29T08:48:42.857Z,99518.50
2022-12-29T08:51:45.558Z,99507.03
2022-12-29T08:54:48.383Z,99515.75
2022-12-29T08:57:53.102Z,99491.84
2022-12-29T09:00:57.574Z,99500.78
2022-12-29T09:04:17.443Z,99516.91
2022-12-29T09:07:21.021Z,99522.03
2022-12-29T09:10:25.177Z,99524.47
2022-12-29T09:13:32.549Z,99522.59
2022-12-29T09:16:36.385Z,99535.22
2022-12-29T09:19:39.268Z,99531.63
2022-12-29T09:22:42.625Z,99534.34
2022-12-29T09:25:45.601Z,99518.53
2022-12-29T09:28:49.796Z,99527.56
2022-12-29T09:31:52.546Z,99531.25
2022-12-29T09:34:55.448Z,99543.28
2022-12-29T09:37:58.183Z,99547.06
2022-12-29T09:41:07.447Z,99557.44
2022-12-29T09:44:19.344Z,99548.50
2022-12-29T09:47:23.137Z,99555.69
2022-12-29T09:50:32.277Z,99562.00
2022-12-29T09:53:40.042Z,99544.41
2022-12-29T09:56:42.974Z,99524.06
2022-12-29T09:59:48.691Z,99528.03
2022-12-29T10:02:55.712Z,99541.19
2022-12-29T10:06:05.614Z,99539.91
2022-12-29T10:09:17.460Z,99526.13
2022-12-29T10:12:31.558Z,99531.75
2022-12-29T10:15:44.231Z,99538.03
2022-12-29T10:19:18.204Z,99550.75
2022-12-29T10:22:34.483Z,99547.50
2022-12-29T10:25:40.880Z,99535.47
2022-12-29T10:28:47.670Z,99546.34
2022-12-29T10:31:58.293Z,99552.97
2022-12-29T10:35:05.508Z,99544.81
2022-12-29T10:38:17.600Z,99535.53
2022-12-29T10:41:25.527Z,99553.94
2022-12-29T10:44:33.002Z,99538.53
2022-12-29T10:47:43.857Z,99547.22
2022-12-29T10:50:46.843Z,99548.09
2022-12-29T10:53:53.543Z,99546.56
2022-12-29T10:57:02.077Z,99554.81
2022-12-29T11:00:13.951Z,99525.81
2022-12-29T11:04:00.130Z,99543.69
2022-12-29T11:07:09.506Z,99541.94
2022-12-29T11:10:22.274Z,99533.47
2022-12-29T11:13:33.470Z,99528.91
2022-12-29T11:16:39.394Z,99550.63
2022-12-29T11:19:42.067Z,99548.94
2022-12-29T11:22:47.239Z,99547.72
2022-12-29T11:26:08.756Z,99558.28
2022-12-29T11:29:27.711Z,99544.00
2022-12-29T11:32:31.295Z,99549.38
2022-12-29T11:35:37.483Z,99547.25
2022-12-29T11:38:44.437Z,99537.97
2022-12-29T11:41:54.690Z,99523.13
2022-12-29T11:44:57.460Z,99536.56
2022-12-29T11:48:03.220Z,99534.47
2022-12-29T11:51:06.281Z,99559.50
2022-12-29T11:54:19.465Z,99546.03
2022-12-29T11:57:25.934Z,99549.91
2022-12-29T12:00:30.726Z,99532.28
2022-12-29T12:03:37.415Z,99555.69
2022-12-29T12:06:47.131Z,99552.88
2022-12-29T12:09:58.995Z,99575.50
2022-12-29T12:13:12.166Z,99579.19
2022-12-29T12:16:19.239Z,99595.69
2022-12-29T12:19:31.887Z,99592.09
2022-12-29T12:22:39.295Z,99594.28
2022-12-29T12:25:50.019Z,99585.16
2022-12-29T12:28:57.774Z,99587.88
2022-12-29T12:32:06.733Z,99592.63
2022-12-29T12:35:18.184Z,99583.59
2022-12-29T12:38:35.832Z,99587.19
2022-12-29T12:41:51.267Z,99594.78
2022-12-29T12:45:06.422Z,99600.41
2022-12-29T12:48:27.144Z,99593.66
2022-12-29T12:51:39.282Z,99609.41
2022-12-29T12:54:59.856Z,99611.75
2022-12-29T12:58:14.197Z,99615.44
2022-12-29T13:01:41.380Z,99616.31
2022-12-29T13:05:06.409Z,99610.97
2022-12-29T13:08:30.098Z,99604.00
2022-12-29T13:11:48.273Z,99574.72
2022-12-29T13:15:04.396Z,99600.72
2022-12-29T13:18:18.093Z,99588.66
2022-12-29T13:21:34.090Z,99593.44
2022-12-29T13:24:48.023Z,99596.66
2022-12-29T13:27:57.912Z,99594.31
2022-12-29T13:31:08.086Z,99594.69
2022-12-29T13:34:23.526Z,99597.03
2022-12-29T13:37:30.072Z,99583.06
2022-12-29T13:40:36.228Z,99584.41
2022-12-29T13:43:44.205Z,99595.97
2022-12-29T13:46:49.833Z,99592.47
2022-12-29T13:49:54.803Z,99591.78
2022-12-29T13:53:04.012Z,99609.94
2022-12-29T13:56:10.967Z,99601.69
2022-12-29T13:59:21.342Z,99600.63
2022-12-29T14:02:39.925Z,99605.66
2022-12-29T14:05:47.727Z,99611.59
2022-12-29T14:08:52.096Z,99611.59
2022-12-29T14:11:55.209Z,99608.00
2022-12-29T14:15:06.246Z,99611.06
2022-12-29T14:18:18.820Z,99596.63
2022-12-29T14:21:24.363Z,99614.09
2022-12-29T14:24:42.392Z,99609.47
2022-12-29T14:27:53.230Z,99626.22
2022-12-29T14:30:57.321Z,99633.50
2022-12-29T14:34:27.825Z,99627.47
2022-12-29T14:37:32.538Z,99640.16
2022-12-29T14:40:35.788Z,99633.09
2022-12-29T14:43:39.082Z,99625.53
2022-12-29T14:46:48.232Z,99645.41
2022-12-29T14:49:53.497Z,99641.25
2022-12-29T14:53:02.912Z,99640.06
2022-12-29T14:56:06.814Z,99631.69
2022-12-29T14:59:12.975Z,99664.09
2022-12-29T15:02:20.934Z,99662.72
2022-12-29T15:05:35.881Z,99664.31
2022-12-29T15:08:41.371Z,99684.63
2022-12-29T15:11:51.693Z,99688.94
2022-12-29T15:14:56.681Z,99680.56
2022-12-29T15:17:59.354Z,99705.94
2022-12-29T15:21:05.899Z,99706.28
2022-12-29T15:24:12.956Z,99705.50
2022-12-29T15:27:18.707Z,99685.28
2022-12-29T15:30:22.268Z,99691.28
2022-12-29T15:33:28.240Z,99714.56
2022-12-29T15:36:39.882Z,99708.78
2022-12-29T15:39:42.912Z,99715.25
2022-12-29T15:43:09.681Z,99696.72
2022-12-29T15:46:13.225Z,99709.50
2022-12-29T15:49:17.908Z,99697.75
2022-12-29T15:52:23.500Z,99683.06
2022-12-29T15:55:32.072Z,99683.06
2022-12-29T15:58:45.539Z,99681.84
2022-12-29T16:01:48.604Z,99626.97
2022-12-29T16:05:16.681Z,99676.09
2022-12-29T16:08:40.809Z,99675.44
2022-12-29T16:11:47.028Z,99704.84
2022-12-29T16:14:54.892Z,99708.09
2022-12-29T16:17:58.013Z,99723.06
2022-12-29T16:21:00.860Z,99715.28
2022-12-29T16:24:10.912Z,99726.09
2022-12-29T16:27:23.927Z,99744.69
2022-12-29T16:30:33.864Z,99735.94
2022-12-29T16:33:48.671Z,99750.41
2022-12-29T16:36:57.042Z,99759.31
2022-12-29T16:40:31.134Z,99763.59
2022-12-29T16:43:36.133Z,99757.81
2022-12-29T16:46:45.927Z,99769.38
2022-12-29T16:49:55.541Z,99767.16
2022-12-29T16:52:58.356Z,99762.34
2022-12-29T16:56:06.130Z,99776.59
2022-12-29T16:59:18.706Z,99777.56
2022-12-29T17:02:24.450Z,99773.63
2022-12-29T17:05:27.674Z,99780.53
2022-12-29T17:08:30.408Z,99793.97
2022-12-29T17:12:00.021Z,99732.03
2022-12-29T17:15:10.934Z,99773.72
2022-12-29T17:18:14.319Z,99782.47
2022-12-29T17:21:17.175Z,99778.88
2022-12-29T17:24:21.300Z,99785.25
2022-12-29T17:27:29.752Z,99786.38
2022-12-29T17:30:36.090Z,99780.16
2022-12-29T17:33:42.746Z,99786.59
2022-12-29T17:36:45.532Z,99789.59
2022-12-29T17:39:48.346Z,99800.44
2022-12-29T17:42:55.993Z,99810.44
2022-12-29T17:45:59.991Z,99808.56
2022-12-29T17:49:03.870Z,99813.88
2022-12-29T17:52:06.747Z,99805.50
2022-12-29T17:55:17.485Z,99779.94
2022-12-29T17:58:23.368Z,99806.06
2022-12-29T18:01:31.029Z,99775.75
2022-12-29T18:04:36.678Z,99787.63
2022-12-29T18:07:39.954Z,99785.75
2022-12-29T18:10:43.561Z,99791.94
2022-12-29T18:13:47.622Z,99782.97
2022-12-29T18:16:50.432Z,99787.25
2022-12-29T18:19:54.853Z,99790.81
2022-12-29T18:22:58.825Z,99795.53
2022-12-29T18:26:03.557Z,99735.59
2022-12-29T18:29:07.862Z,99812.97
2022-12-29T18:32:13.618Z,99799.44
2022-12-29T18:35:20.431Z,99804.84
2022-12-29T18:38:23.225Z,99780.09
2022-12-29T18:41:29.161Z,99810.75
2022-12-29T18:44:33.283Z,99810.75
2022-12-29T18:47:35.990Z,99796.25
2022-12-29T18:50:38.653Z,99774.59
2022-12-29T18:53:41.379Z,99781.00
2022-12-29T18:56:44.172Z,99792.38
2022-12-29T18:59:48.281Z,99795.00
2022-12-29T19:02:52.090Z,99791.72
2022-12-29T19:05:54.828Z,99769.47
2022-12-29T19:08:57.487Z,99806.06
2022-12-29T19:12:00.210Z,99813.91
2022-12-29T19:15:07.240Z,99812.53
2022-12-29T19:18:43.995Z,99810.34
2022-12-29T19:21:36.489Z,99819.69
2022-12-29T19:24:39.249Z,99821.56
2022-12-29T19:27:42.117Z,99812.59
2022-12-29T19:30:51.691Z,99815.59
2022-12-29T19:33:55.673Z,99811.19
2022-12-29T19:36:58.387Z,99805.78
2022-12-29T19:40:01.161Z,99754.03
2022-12-29T19:43:03.999Z,99747.09
2022-12-29T19:46:13.117Z,99800.25
2022-12-29T19:49:15.811Z,99790.03
2022-12-29T19:52:18.527Z,99811.50
2022-12-29T19:55:21.448Z,99808.16
2022-12-29T19:58:24.221Z,99804.78
2022-12-29T20:01:28.768Z,99822.44
2022-12-29T20:04:32.050Z,99786.03
2022-12-29T20:07:34.813Z,99819.31
2022-12-29T20:10:37.474Z,99829.47
2022-12-29T20:13:40.847Z,99825.97
2022-12-29T20:17:09.656Z,99833.25
2022-12-29T20:20:09.087Z,99826.84
2022-12-29T20:23:12.297Z,99834.88
2022-12-29T20:26:16.989Z,99828.53
2022-12-29T20:29:19.810Z,99830.00
2022-12-29T20:32:25.356Z,99822.00
2022-12-29T20:35:28.485Z,99802.31
2022-12-29T20:38:31.237Z,99834.31
2022-12-29T20:41:34.463Z,99834.75
2022-12-29T20:44:38.185Z,99837.22
2022-12-29T20:47:43.117Z,99860.75
2022-12-29T20:50:45.809Z,99854.88
2022-12-29T20:53:48.832Z,99879.31
2022-12-29T20:56:52.399Z,99871.25
2022-12-29T20:59:55.040Z,99883.72
2022-12-29T21:02:59.610Z,99887.31
2022-12-29T21:06:02.916Z,99883.53
2022-12-29T21:09:06.598Z,99880.78
2022-12-29T21:12:09.478Z,99869.72
2022-12-29T21:15:14.400Z,99868.66
2022-12-29T21:18:18.606Z,99876.66
2022-12-29T21:21:23.523Z,99874.56
2022-12-29T21:24:26.632Z,99876.47
2022-12-29T21:27:29.299Z,99866.22
2022-12-29T21:30:32.102Z,99863.50
2022-12-29T21:33:37.524Z,99851.97
2022-12-29T21:36:40.458Z,99866.38
2022-12-29T21:39:43.543Z,99870.91
2022-12-29T21:42:46.266Z,99868.78
2022-12-29T21:45:50.881Z,99849.22
2022-12-29T21:48:55.032Z,99871.19
2022-12-29T21:51:57.791Z,99867.34
2022-12-29T21:55:05.146Z,99890.78
2022-12-29T21:58:25.452Z,99899.00
2022-12-29T22:01:48.336Z,99906.09
2022-12-29T22:05:09.860Z,99909.75
2022-12-29T22:08:30.123Z,99907.88
2022-12-29T22:11:50.301Z,99898.00
2022-12-29T22:14:52.947Z,99858.47
2022-12-29T22:17:56.950Z,99913.66
2022-12-29T22:21:04.734Z,99934.47
2022-12-29T22:24:08.656Z,99935.28
2022-12-29T22:27:11.369Z,99914.22
2022-12-29T22:30:15.076Z,99945.06
2022-12-29T22:33:17.864Z,99952.03
2022-12-29T22:36:22.006Z,99911.00
2022-12-29T22:39:25.136Z,99965.53
2022-12-29T22:42:27.850Z,99970.06
2022-12-29T22:45:30.885Z,99970.06
2022-12-29T22:48:34.061Z,99948.28
2022-12-29T22:51:38.168Z,99988.91
2022-12-29T22:54:40.897Z,99989.88
2022-12-29T22:57:43.585Z,99998.84
2022-12-29T23:00:46.842Z,99998.13
2022-12-29T23:03:50.168Z,99982.44
2022-12-29T23:06:54.336Z,100011.81
2022-12-29T23:09:57.075Z,100009.06
2022-12-29T23:12:59.765Z,100011.69
2022-12-29T23:16:03.380Z,99998.94
2022-12-29T23:19:06.876Z,100022.75
2022-12-29T23:22:10.920Z,100023.09
2022-12-29T23:25:13.689Z,100015.44
2022-12-29T23:28:16.640Z,100024.78
2022-12-29T23:31:19.634Z,100048.06
2022-12-29T23:34:22.319Z,100049.97
2022-12-29T23:37:26.340Z,100040.38
2022-12-29T23:40:29.058Z,100053.19
2022-12-29T23:43:31.868Z,100043.53
2022-12-29T23:46:35.612Z,100047.19
2022-12-29T23:49:38.520Z,100050.88
2022-12-29T23:52:42.525Z,100054.84
2022-12-29T23:55:45.598Z,100042.72
2022-12-29T23:58:48.410Z,100051.50
